createdAt,value
2019-05-18T00:00:20.860Z,32.38
2019-05-18T00:00:54.654Z,24.32
2019-05-18T00:01:28.632Z,25.97
2019-05-18T00:02:02.241Z,26.65
2019-05-18T00:02:36.023Z,26.33
2019-05-18T00:03:10.036Z,24.47
2019-05-18T00:03:43.661Z,27.62
2019-05-18T00:04:17.624Z,26.60
2019-05-18T00:04:51.598Z,24.67
2019-05-18T00:05:25.203Z,31.02
2019-05-18T00:05:59.123Z,27.52
2019-05-18T00:06:33.164Z,29.02
2019-05-18T00:07:06.839Z,30.85
2019-05-18T00:07:40.630Z,30.55
2019-05-18T00:08:14.607Z,28.23
2019-05-18T00:08:48.235Z,29.52
2019-05-18T00:09:22.043Z,30.60
2019-05-18T00:09:56.019Z,28.92
2019-05-18T00:10:29.619Z,30.40
2019-05-18T00:11:03.529Z,31.23
2019-05-18T00:11:37.539Z,30.43
2019-05-18T00:12:11.151Z,32.67
2019-05-18T00:12:44.943Z,35.00
2019-05-18T00:13:18.912Z,32.00
2019-05-18T00:13:52.521Z,32.00
2019-05-18T00:14:26.319Z,33.38
2019-05-18T00:15:00.320Z,36.05
2019-05-18T00:15:34.007Z,34.75
2019-05-18T00:16:07.792Z,31.93
2019-05-18T00:16:41.955Z,33.45
2019-05-18T00:17:24.894Z,35.88
2019-05-18T00:17:50.995Z,41.25
2019-05-18T00:18:24.969Z,37.20
2019-05-18T00:18:58.574Z,34.05
2019-05-18T00:19:32.354Z,37.33
2019-05-18T00:20:07.292Z,37.17
2019-05-18T00:20:40.909Z,32.73
2019-05-18T00:21:14.714Z,38.50
2019-05-18T00:21:48.880Z,36.42
2019-05-18T00:22:22.495Z,40.15
2019-05-18T00:22:56.287Z,36.03
2019-05-18T00:23:30.333Z,41.80
2019-05-18T00:24:03.986Z,34.50
2019-05-18T00:24:37.758Z,33.67
2019-05-18T00:25:11.735Z,42.95
2019-05-18T00:25:45.356Z,35.20
2019-05-18T00:26:19.340Z,40.03
2019-05-18T00:26:53.309Z,33.70
2019-05-18T00:27:26.916Z,39.27
2019-05-18T00:28:00.696Z,36.20
2019-05-18T00:28:34.676Z,42.03
2019-05-18T00:29:08.433Z,41.70
2019-05-18T00:29:42.400Z,38.00
2019-05-18T00:30:16.375Z,47.17
2019-05-18T00:30:49.985Z,39.98
2019-05-18T00:31:23.803Z,37.90
2019-05-18T00:31:57.799Z,38.00
2019-05-18T00:32:31.471Z,44.85
2019-05-18T00:33:05.470Z,41.53
2019-05-18T00:33:39.444Z,38.25
2019-05-18T00:34:13.182Z,38.83
2019-05-18T00:34:46.975Z,36.77
2019-05-18T00:35:20.949Z,41.05
2019-05-18T00:35:54.554Z,40.92
2019-05-18T00:36:29.181Z,39.40
2019-05-18T00:37:03.174Z,39.73
2019-05-18T00:37:36.803Z,39.20
2019-05-18T00:38:10.589Z,38.60
2019-05-18T00:38:44.563Z,40.17
2019-05-18T00:39:18.175Z,37.50
2019-05-18T00:39:51.997Z,44.38
2019-05-18T00:40:26.151Z,43.80
2019-05-18T00:40:59.752Z,40.80
2019-05-18T00:41:33.554Z,39.15
2019-05-18T00:42:07.534Z,38.33
2019-05-18T00:42:41.162Z,43.00
2019-05-18T00:43:14.966Z,39.30
2019-05-18T00:43:48.945Z,35.70
2019-05-18T00:44:22.643Z,39.78
2019-05-18T00:44:56.436Z,39.95
2019-05-18T00:45:30.415Z,39.35
2019-05-18T00:46:05.275Z,38.58
2019-05-18T00:46:39.243Z,37.28
2019-05-18T00:47:13.227Z,44.33
2019-05-18T00:47:46.838Z,44.60
2019-05-18T00:48:20.656Z,36.75
2019-05-18T00:48:54.639Z,41.15
2019-05-18T00:49:28.249Z,39.58
2019-05-18T00:50:02.038Z,37.10
2019-05-18T00:50:36.023Z,39.60
2019-05-18T00:51:09.635Z,39.30
2019-05-18T00:51:43.776Z,40.80
2019-05-18T00:52:17.751Z,39.15
2019-05-18T00:52:51.359Z,39.35
2019-05-18T00:53:25.143Z,36.42
2019-05-18T00:53:59.138Z,37.40
2019-05-18T00:54:32.795Z,36.28
2019-05-18T00:55:08.118Z,39.05
2019-05-18T00:55:42.099Z,44.93
2019-05-18T00:56:15.704Z,40.08
2019-05-18T00:56:49.492Z,38.17
2019-05-18T00:57:23.464Z,40.23
2019-05-18T00:57:57.069Z,40.70
2019-05-18T00:58:31.026Z,43.10
2019-05-18T00:59:05.011Z,38.40
2019-05-18T00:59:38.631Z,34.33
2019-05-18T01:00:12.614Z,37.55
2019-05-18T01:00:46.660Z,39.92
2019-05-18T01:01:20.271Z,39.38
2019-05-18T01:01:54.068Z,35.98
2019-05-18T01:02:28.044Z,39.83
2019-05-18T01:03:01.655Z,35.43
2019-05-18T01:03:35.448Z,34.83
2019-05-18T01:04:09.428Z,40.67
2019-05-18T01:04:43.191Z,38.55
2019-05-18T01:05:17.003Z,41.98
2019-05-18T01:05:50.995Z,38.40
2019-05-18T01:06:24.607Z,38.20
2019-05-18T01:06:58.467Z,36.58
2019-05-18T01:07:32.439Z,41.35
2019-05-18T01:08:06.046Z,41.02
2019-05-18T01:08:39.837Z,38.33
2019-05-18T01:09:13.900Z,35.45
2019-05-18T01:09:47.628Z,37.25
2019-05-18T01:10:21.423Z,41.88
2019-05-18T01:10:55.415Z,40.30
2019-05-18T01:11:29.058Z,39.20
2019-05-18T01:12:02.829Z,37.70
2019-05-18T01:12:36.802Z,39.78
2019-05-18T01:13:10.404Z,36.77
2019-05-18T01:13:44.354Z,38.02
2019-05-18T01:14:18.323Z,38.92
2019-05-18T01:14:52.072Z,37.73
2019-05-18T01:15:25.868Z,36.90
2019-05-18T01:15:59.836Z,41.83
2019-05-18T01:16:33.479Z,45.05
2019-05-18T01:17:07.287Z,34.70
2019-05-18T01:17:55.106Z,38.17
2019-05-18T01:18:16.508Z,42.90
2019-05-18T01:18:50.297Z,38.92
2019-05-18T01:19:24.276Z,35.40
2019-05-18T01:19:57.879Z,38.30
2019-05-18T01:20:31.664Z,38.70
2019-05-18T01:21:05.643Z,40.83
2019-05-18T01:21:39.423Z,40.00
2019-05-18T01:22:13.257Z,41.35
2019-05-18T01:22:47.231Z,38.65
2019-05-18T01:23:20.845Z,40.08
2019-05-18T01:23:54.630Z,39.42
2019-05-18T01:24:28.621Z,39.75
2019-05-18T01:25:02.208Z,42.38
2019-05-18T01:25:35.997Z,40.25
2019-05-18T01:26:09.965Z,40.05
2019-05-18T01:26:43.566Z,39.98
2019-05-18T01:27:17.360Z,37.67
2019-05-18T01:27:51.363Z,42.58
2019-05-18T01:28:24.980Z,46.68
2019-05-18T01:29:03.479Z,40.05
2019-05-18T01:29:37.460Z,38.92
2019-05-18T01:30:11.298Z,35.78
2019-05-18T01:30:45.631Z,40.03
2019-05-18T01:31:19.608Z,40.03
2019-05-18T01:31:53.215Z,39.03
2019-05-18T01:32:28.339Z,39.50
2019-05-18T01:33:02.316Z,42.85
2019-05-18T01:33:35.948Z,40.88
2019-05-18T01:34:09.755Z,43.02
2019-05-18T01:34:43.769Z,37.98
2019-05-18T01:35:17.375Z,39.18
2019-05-18T01:35:51.550Z,40.03
2019-05-18T01:36:25.503Z,38.48
2019-05-18T01:36:59.191Z,41.05
2019-05-18T01:37:33.039Z,41.53
2019-05-18T01:38:07.145Z,39.40
2019-05-18T01:38:40.876Z,39.27
2019-05-18T01:39:14.867Z,35.88
2019-05-18T01:39:48.861Z,39.58
2019-05-18T01:40:22.469Z,34.23
2019-05-18T01:40:56.252Z,38.02
2019-05-18T01:41:30.231Z,33.13
2019-05-18T01:42:03.905Z,33.83
2019-05-18T01:42:37.763Z,37.85
2019-05-18T01:43:11.739Z,39.03
2019-05-18T01:43:45.348Z,37.85
2019-05-18T01:44:19.139Z,37.10
2019-05-18T01:44:53.140Z,34.50
2019-05-18T01:45:26.763Z,40.98
2019-05-18T01:46:00.554Z,38.90
2019-05-18T01:46:34.525Z,37.17
2019-05-18T01:47:08.142Z,39.67
2019-05-18T01:47:41.926Z,38.53
2019-05-18T01:48:15.902Z,42.15
2019-05-18T01:48:49.508Z,43.20
2019-05-18T01:49:23.302Z,41.23
2019-05-18T01:49:57.272Z,39.20
2019-05-18T01:50:30.894Z,39.42
2019-05-18T01:51:04.704Z,44.00
2019-05-18T01:51:38.681Z,41.95
2019-05-18T01:52:12.289Z,42.03
2019-05-18T01:52:46.075Z,39.53
2019-05-18T01:53:20.058Z,37.50
2019-05-18T01:53:53.660Z,38.20
2019-05-18T01:54:27.549Z,37.98
2019-05-18T01:55:01.532Z,37.17
2019-05-18T01:55:35.200Z,34.80
2019-05-18T01:56:09.010Z,40.50
2019-05-18T01:56:43.004Z,39.38
2019-05-18T01:57:16.641Z,41.68
2019-05-18T01:57:50.435Z,41.28
2019-05-18T01:58:24.563Z,43.20
2019-05-18T01:58:58.170Z,44.98
2019-05-18T01:59:31.956Z,37.03
2019-05-18T02:00:06.515Z,39.42
2019-05-18T02:00:40.105Z,39.83
2019-05-18T02:01:13.892Z,41.83
2019-05-18T02:01:47.987Z,39.88
2019-05-18T02:02:21.604Z,38.83
2019-05-18T02:02:55.391Z,35.38
2019-05-18T02:03:29.354Z,41.50
2019-05-18T02:04:02.963Z,41.77
2019-05-18T02:04:36.761Z,44.95
2019-05-18T02:05:11.176Z,39.67
2019-05-18T02:05:44.788Z,41.18
2019-05-18T02:06:18.724Z,39.25
2019-05-18T02:06:52.699Z,37.53
2019-05-18T02:07:26.326Z,44.70
2019-05-18T02:08:00.144Z,42.98
2019-05-18T02:08:34.112Z,39.88
2019-05-18T02:09:08.820Z,43.95
2019-05-18T02:09:42.603Z,39.45
2019-05-18T02:10:16.603Z,39.03
2019-05-18T02:10:50.188Z,41.15
2019-05-18T02:11:23.976Z,40.60
2019-05-18T02:11:57.948Z,37.55
2019-05-18T02:12:31.594Z,43.00
2019-05-18T02:13:05.364Z,40.92
2019-05-18T02:13:39.358Z,41.53
2019-05-18T02:14:13.200Z,41.98
2019-05-18T02:14:46.975Z,45.50
2019-05-18T02:15:20.965Z,40.48
2019-05-18T02:15:54.555Z,39.25
2019-05-18T02:16:28.349Z,41.65
2019-05-18T02:17:02.328Z,43.28
2019-05-18T02:17:35.938Z,39.42
2019-05-18T02:18:09.908Z,40.98
2019-05-18T02:18:43.904Z,43.02
2019-05-18T02:19:17.526Z,46.92
2019-05-18T02:19:51.310Z,42.67
2019-05-18T02:20:25.283Z,46.68
2019-05-18T02:20:58.890Z,39.88
2019-05-18T02:21:32.676Z,40.85
2019-05-18T02:22:06.656Z,41.65
2019-05-18T02:22:40.345Z,43.35
2019-05-18T02:23:14.125Z,38.08
2019-05-18T02:23:48.101Z,42.08
2019-05-18T02:24:21.726Z,42.10
2019-05-18T02:24:55.540Z,43.58
2019-05-18T02:25:29.523Z,45.43
2019-05-18T02:26:03.127Z,41.37
2019-05-18T02:26:36.986Z,42.00
2019-05-18T02:27:10.960Z,40.80
2019-05-18T02:27:44.573Z,42.03
2019-05-18T02:28:18.480Z,41.28
2019-05-18T02:28:52.456Z,40.33
2019-05-18T02:29:26.184Z,39.75
2019-05-18T02:29:59.996Z,39.98
2019-05-18T02:30:33.996Z,38.30
2019-05-18T02:31:07.610Z,43.20
2019-05-18T02:31:41.507Z,42.98
2019-05-18T02:32:15.513Z,39.35
2019-05-18T02:32:49.118Z,43.28
2019-05-18T02:33:22.906Z,40.03
2019-05-18T02:33:56.871Z,37.93
2019-05-18T02:34:30.625Z,38.80
2019-05-18T02:35:06.270Z,44.13
2019-05-18T02:35:40.243Z,41.42
2019-05-18T02:36:13.877Z,38.58
2019-05-18T02:36:47.665Z,37.88
2019-05-18T02:37:21.636Z,41.98
2019-05-18T02:37:56.697Z,38.73
2019-05-18T02:38:30.479Z,43.33
2019-05-18T02:39:05.895Z,44.65
2019-05-18T02:39:39.864Z,40.83
2019-05-18T02:40:13.285Z,41.18
2019-05-18T02:40:47.399Z,44.27
2019-05-18T02:41:21.391Z,45.63
2019-05-18T02:41:54.825Z,43.55
2019-05-18T02:42:30.785Z,38.33
2019-05-18T02:43:04.627Z,42.73
2019-05-18T02:43:38.073Z,42.13
2019-05-18T02:44:12.047Z,45.45
2019-05-18T02:44:46.020Z,47.55
2019-05-18T02:45:20.006Z,45.75
2019-05-18T02:45:54.189Z,47.48
2019-05-18T02:46:28.160Z,46.35
2019-05-18T02:47:01.601Z,41.60
2019-05-18T02:47:35.591Z,48.95
2019-05-18T02:48:09.560Z,48.13
2019-05-18T02:48:49.660Z,42.35
2019-05-18T02:49:18.599Z,45.40
2019-05-18T02:49:52.614Z,47.20
2019-05-18T02:50:26.033Z,47.45
2019-05-18T02:51:00.005Z,43.15
2019-05-18T02:51:33.983Z,47.67
2019-05-18T02:52:07.416Z,43.48
2019-05-18T02:52:41.561Z,44.25
2019-05-18T02:53:15.565Z,43.50
2019-05-18T02:53:48.968Z,40.28
2019-05-18T02:54:22.941Z,49.42
2019-05-18T02:54:57.044Z,43.42
2019-05-18T02:55:30.468Z,45.45
2019-05-18T02:56:04.624Z,35.60
2019-05-18T02:56:38.682Z,41.85
2019-05-18T02:57:12.267Z,41.20
2019-05-18T02:57:46.253Z,42.55
2019-05-18T02:58:20.265Z,46.95
2019-05-18T02:58:53.702Z,44.95
2019-05-18T02:59:27.692Z,44.08
2019-05-18T03:00:01.802Z,40.05
2019-05-18T03:00:35.336Z,40.65
2019-05-18T03:01:09.308Z,41.92
2019-05-18T03:01:43.477Z,42.55
2019-05-18T03:02:16.899Z,45.10
2019-05-18T03:02:50.874Z,49.48
2019-05-18T03:03:24.857Z,44.77
2019-05-18T03:03:58.298Z,47.30
2019-05-18T03:04:32.290Z,44.08
2019-05-18T03:05:07.533Z,43.92
2019-05-18T03:05:40.972Z,42.38
2019-05-18T03:06:15.026Z,43.42
2019-05-18T03:06:49.010Z,45.65
2019-05-18T03:07:22.413Z,43.48
2019-05-18T03:07:56.390Z,40.40
2019-05-18T03:08:30.369Z,43.00
2019-05-18T03:09:05.462Z,45.73
2019-05-18T03:09:39.545Z,42.45
2019-05-18T03:10:13.728Z,40.92
2019-05-18T03:10:47.144Z,41.18
2019-05-18T03:11:21.119Z,43.95
2019-05-18T03:11:55.095Z,42.93
2019-05-18T03:12:28.550Z,42.88
2019-05-18T03:13:02.534Z,44.33
2019-05-18T03:13:36.506Z,40.75
2019-05-18T03:14:10.235Z,44.33
2019-05-18T03:14:44.225Z,42.13
2019-05-18T03:15:18.201Z,45.98
2019-05-18T03:15:51.645Z,45.73
2019-05-18T03:16:25.620Z,42.95
2019-05-18T03:16:59.602Z,39.50
2019-05-18T03:17:33.012Z,44.70
2019-05-18T03:18:07.113Z,42.48
2019-05-18T03:18:41.160Z,44.18
2019-05-18T03:19:14.580Z,41.10
2019-05-18T03:19:48.557Z,46.35
2019-05-18T03:20:22.611Z,44.80
2019-05-18T03:20:56.060Z,41.37
2019-05-18T03:21:30.060Z,48.08
2019-05-18T03:22:04.031Z,40.20
2019-05-18T03:22:37.733Z,42.05
2019-05-18T03:23:11.712Z,45.10
2019-05-18T03:23:45.689Z,45.55
2019-05-18T03:24:19.104Z,43.78
2019-05-18T03:24:53.078Z,46.85
2019-05-18T03:25:27.058Z,39.18
2019-05-18T03:26:00.488Z,39.85
2019-05-18T03:26:34.485Z,41.98
2019-05-18T03:27:08.486Z,39.78
2019-05-18T03:27:41.908Z,41.83
2019-05-18T03:28:15.880Z,40.33
2019-05-18T03:28:49.852Z,38.55
2019-05-18T03:29:23.285Z,39.42
2019-05-18T03:29:57.257Z,40.38
2019-05-18T03:30:31.234Z,41.70
2019-05-18T03:31:04.756Z,40.48
2019-05-18T03:31:38.810Z,47.88
2019-05-18T03:32:12.791Z,39.98
2019-05-18T03:32:46.338Z,41.33
2019-05-18T03:33:20.349Z,41.65
2019-05-18T03:33:54.301Z,39.55
2019-05-18T03:34:28.001Z,38.00
2019-05-18T03:35:02.002Z,42.45
2019-05-18T03:35:35.958Z,42.58
2019-05-18T03:36:09.369Z,42.53
2019-05-18T03:36:43.340Z,40.10
2019-05-18T03:37:17.317Z,47.93
2019-05-18T03:37:50.756Z,38.75
2019-05-18T03:38:24.750Z,43.98
2019-05-18T03:38:58.732Z,46.77
2019-05-18T03:39:32.241Z,38.28
2019-05-18T03:40:06.447Z,42.27
2019-05-18T03:40:40.422Z,47.93
2019-05-18T03:41:13.837Z,40.05
2019-05-18T03:41:47.823Z,42.90
2019-05-18T03:42:21.784Z,47.95
2019-05-18T03:42:55.491Z,42.50
2019-05-18T03:43:29.484Z,42.45
2019-05-18T03:44:03.476Z,40.20
2019-05-18T03:44:36.947Z,42.45
2019-05-18T03:45:11.695Z,43.15
2019-05-18T03:45:45.662Z,44.58
2019-05-18T03:46:19.085Z,43.45
2019-05-18T03:46:53.078Z,43.45
2019-05-18T03:47:27.033Z,43.52
2019-05-18T03:48:00.664Z,45.33
2019-05-18T03:48:34.635Z,42.43
2019-05-18T03:49:25.505Z,45.10
2019-05-18T03:49:43.909Z,42.83
2019-05-18T03:50:17.887Z,39.25
2019-05-18T03:50:51.869Z,43.65
2019-05-18T03:51:25.283Z,42.90
2019-05-18T03:51:59.266Z,43.00
2019-05-18T03:52:33.239Z,45.33
2019-05-18T03:53:06.819Z,40.92
2019-05-18T03:53:40.816Z,43.30
2019-05-18T03:54:14.773Z,40.58
2019-05-18T03:54:48.276Z,46.35
2019-05-18T03:55:22.276Z,42.98
2019-05-18T03:55:56.239Z,40.52
2019-05-18T03:56:29.889Z,42.38
2019-05-18T03:57:03.864Z,44.03
2019-05-18T03:57:37.856Z,47.55
2019-05-18T03:58:11.257Z,45.67
2019-05-18T03:58:45.420Z,48.38
2019-05-18T03:59:19.521Z,44.08
2019-05-18T03:59:53.059Z,48.45
2019-05-18T04:00:27.108Z,48.35
2019-05-18T04:01:01.095Z,48.35
2019-05-18T04:01:34.644Z,49.00
2019-05-18T04:02:08.629Z,45.05
2019-05-18T04:02:42.603Z,42.73
2019-05-18T04:03:16.004Z,44.70
2019-05-18T04:03:50.136Z,48.58
2019-05-18T04:04:24.285Z,47.83
2019-05-18T04:04:57.700Z,43.85
2019-05-18T04:05:32.428Z,43.90
2019-05-18T04:06:06.426Z,45.35
2019-05-18T04:06:39.906Z,45.45
2019-05-18T04:07:13.846Z,49.58
2019-05-18T04:07:47.911Z,44.13
2019-05-18T04:08:21.460Z,44.95
2019-05-18T04:08:55.526Z,46.40
2019-05-18T04:09:29.499Z,48.90
2019-05-18T04:10:05.164Z,45.50
2019-05-18T04:10:39.142Z,52.50
2019-05-18T04:11:13.106Z,45.10
2019-05-18T04:11:46.555Z,46.10
2019-05-18T04:12:20.548Z,50.23
2019-05-18T04:12:54.661Z,49.13
2019-05-18T04:13:28.088Z,46.95
2019-05-18T04:14:07.656Z,47.38
2019-05-18T04:14:38.627Z,45.10
2019-05-18T04:15:12.037Z,44.40
2019-05-18T04:15:46.013Z,49.73
2019-05-18T04:16:20.059Z,59.55
2019-05-18T04:16:55.116Z,50.75
2019-05-18T04:17:29.166Z,50.50
2019-05-18T04:18:03.261Z,56.63
2019-05-18T04:18:37.336Z,49.33
2019-05-18T04:19:10.761Z,45.17
2019-05-18T04:19:47.351Z,51.15
2019-05-18T04:20:20.344Z,45.48
2019-05-18T04:20:53.760Z,54.00
2019-05-18T04:21:27.838Z,48.23
2019-05-18T04:22:01.808Z,50.55
2019-05-18T04:22:35.227Z,51.18
2019-05-18T04:23:09.234Z,49.70
2019-05-18T04:23:43.221Z,52.65
2019-05-18T04:24:16.650Z,49.67
2019-05-18T04:24:50.394Z,60.40
2019-05-18T04:25:24.373Z,59.53
2019-05-18T04:25:57.962Z,58.90
2019-05-18T04:26:31.926Z,60.12
2019-05-18T04:27:06.076Z,62.13
2019-05-18T04:27:39.839Z,60.95
2019-05-18T04:28:13.821Z,63.10
2019-05-18T04:28:47.805Z,58.85
2019-05-18T04:29:21.259Z,59.73
2019-05-18T04:29:55.342Z,61.18
2019-05-18T04:30:29.319Z,60.85
2019-05-18T04:31:02.739Z,64.85
2019-05-18T04:31:36.720Z,59.03
2019-05-18T04:32:10.706Z,66.80
2019-05-18T04:32:44.134Z,63.02
2019-05-18T04:33:18.109Z,63.90
2019-05-18T04:33:52.084Z,64.12
2019-05-18T04:34:25.523Z,65.47
2019-05-18T04:34:59.527Z,69.30
2019-05-18T04:35:33.511Z,67.45
2019-05-18T04:36:06.935Z,79.25
2019-05-18T04:36:40.912Z,73.28
2019-05-18T04:37:14.876Z,72.40
2019-05-18T04:37:48.407Z,71.72
2019-05-18T04:38:22.383Z,62.08
2019-05-18T04:38:56.365Z,63.13
2019-05-18T04:39:29.786Z,84.35
2019-05-18T04:40:04.348Z,71.85
2019-05-18T04:40:38.341Z,73.65
2019-05-18T04:41:11.880Z,75.40
2019-05-18T04:41:45.935Z,69.80
2019-05-18T04:42:19.910Z,74.10
2019-05-18T04:42:53.327Z,68.17
2019-05-18T04:43:27.310Z,71.90
2019-05-18T04:44:01.285Z,77.95
2019-05-18T04:44:34.715Z,68.92
2019-05-18T04:45:08.686Z,73.37
2019-05-18T04:45:44.404Z,67.05
2019-05-18T04:46:19.672Z,68.07
2019-05-18T04:46:53.892Z,66.90
2019-05-18T04:47:27.838Z,52.70
2019-05-18T04:48:01.257Z,64.97
2019-05-18T04:48:35.438Z,68.87
2019-05-18T04:49:09.406Z,65.92
2019-05-18T04:49:42.823Z,64.70
2019-05-18T04:50:16.865Z,71.40
2019-05-18T04:50:50.921Z,70.20
2019-05-18T04:51:24.360Z,67.97
2019-05-18T04:51:58.357Z,68.40
2019-05-18T04:52:32.341Z,68.40
2019-05-18T04:53:05.761Z,68.12
2019-05-18T04:53:39.844Z,70.12
2019-05-18T04:54:13.820Z,75.83
2019-05-18T04:54:47.242Z,66.37
2019-05-18T04:55:21.229Z,69.42
2019-05-18T04:55:55.478Z,71.00
2019-05-18T04:56:29.145Z,77.17
2019-05-18T04:57:03.398Z,69.65
2019-05-18T04:57:37.434Z,72.87
2019-05-18T04:58:11.409Z,67.42
2019-05-18T04:58:45.454Z,73.67
2019-05-18T04:59:19.686Z,66.72
2019-05-18T04:59:53.155Z,69.62
2019-05-18T05:00:27.703Z,65.08
2019-05-18T05:01:02.143Z,65.90
2019-05-18T05:01:35.719Z,64.10
2019-05-18T05:02:09.865Z,60.98
2019-05-18T05:02:43.929Z,61.23
2019-05-18T05:03:17.378Z,69.85
2019-05-18T05:03:51.599Z,66.95
2019-05-18T05:04:25.573Z,67.22
2019-05-18T05:04:59.999Z,65.45
2019-05-18T05:05:34.134Z,70.90
2019-05-18T05:06:08.268Z,64.85
2019-05-18T05:06:41.742Z,64.75
2019-05-18T05:07:15.776Z,64.70
2019-05-18T05:07:49.769Z,66.37
2019-05-18T05:08:23.341Z,75.28
2019-05-18T05:08:58.002Z,69.17
2019-05-18T05:09:32.543Z,67.45
2019-05-18T05:10:07.604Z,66.10
2019-05-18T05:10:41.663Z,66.85
2019-05-18T05:11:15.411Z,68.33
2019-05-18T05:27:53.171Z,71.12
2019-05-18T05:28:28.181Z,56.23
2019-05-18T05:29:02.640Z,55.67
2019-05-18T05:29:39.471Z,60.35
2019-05-18T05:30:13.711Z,58.45
2019-05-18T05:30:47.705Z,61.45
2019-05-18T05:31:21.135Z,65.67
2019-05-18T05:31:55.444Z,62.83
2019-05-18T05:32:29.449Z,69.85
2019-05-18T05:33:02.863Z,57.38
2019-05-18T05:33:36.862Z,60.67
2019-05-18T05:34:10.862Z,63.73
2019-05-18T05:34:44.337Z,65.95
2019-05-18T05:35:18.402Z,61.23
2019-05-18T05:35:52.374Z,58.33
2019-05-18T05:36:27.459Z,64.65
2019-05-18T05:37:01.435Z,56.73
2019-05-18T05:37:35.404Z,57.62
2019-05-18T05:38:08.831Z,55.25
2019-05-18T05:38:42.816Z,60.95
2019-05-18T05:39:16.840Z,56.70
2019-05-18T05:39:50.285Z,58.80
2019-05-18T05:40:24.345Z,62.53
2019-05-18T05:40:58.323Z,61.88
2019-05-18T05:41:31.896Z,63.17
2019-05-18T05:42:05.867Z,57.67
2019-05-18T05:42:39.845Z,56.55
2019-05-18T05:43:13.357Z,58.20
2019-05-18T05:43:47.331Z,58.75
2019-05-18T05:44:21.520Z,65.78
2019-05-18T05:44:54.995Z,60.95
2019-05-18T05:45:28.990Z,56.30
2019-05-18T05:46:02.986Z,61.28
2019-05-18T05:46:37.488Z,70.10
2019-05-18T05:47:11.665Z,69.90
2019-05-18T05:47:45.812Z,62.20
2019-05-18T05:48:19.243Z,59.58
2019-05-18T05:48:53.221Z,62.27
2019-05-18T05:49:27.253Z,57.38
2019-05-18T05:50:00.673Z,63.55
2019-05-18T05:50:36.583Z,55.15
2019-05-18T05:51:10.408Z,62.93
2019-05-18T05:51:43.831Z,58.08
2019-05-18T05:52:17.802Z,62.98
2019-05-18T05:52:51.776Z,60.58
2019-05-18T05:53:25.338Z,56.83
2019-05-18T05:53:59.316Z,65.35
2019-05-18T05:54:33.284Z,62.23
2019-05-18T05:55:08.043Z,65.83
2019-05-18T05:55:42.020Z,61.40
2019-05-18T05:56:16.078Z,65.75
2019-05-18T05:56:49.651Z,57.73
2019-05-18T05:57:23.615Z,59.10
2019-05-18T05:57:57.768Z,58.58
2019-05-18T05:58:31.181Z,60.48
2019-05-18T05:59:05.364Z,64.20
2019-05-18T05:59:39.447Z,56.95
2019-05-18T06:00:13.735Z,64.42
2019-05-18T06:00:47.711Z,56.85
2019-05-18T06:01:21.772Z,61.55
2019-05-18T06:01:55.522Z,55.50
2019-05-18T06:02:29.524Z,60.08
2019-05-18T06:03:03.496Z,62.45
2019-05-18T06:03:36.977Z,58.68
2019-05-18T06:04:10.943Z,56.77
2019-05-18T06:04:45.125Z,60.95
2019-05-18T06:05:18.856Z,63.48
2019-05-18T06:05:52.825Z,66.40
2019-05-18T06:06:26.815Z,58.90
2019-05-18T06:07:00.233Z,58.10
2019-05-18T06:07:34.499Z,60.88
2019-05-18T06:08:08.496Z,60.48
2019-05-18T06:08:41.913Z,60.63
2019-05-18T06:09:15.883Z,61.23
2019-05-18T06:09:49.858Z,61.05
2019-05-18T06:10:23.339Z,62.88
2019-05-18T06:10:57.318Z,61.95
2019-05-18T06:11:31.286Z,64.17
2019-05-18T06:12:04.708Z,74.72
2019-05-18T06:12:38.686Z,59.60
2019-05-18T06:13:12.667Z,61.53
2019-05-18T06:13:46.119Z,57.90
2019-05-18T06:14:20.090Z,58.23
2019-05-18T06:14:54.066Z,58.65
2019-05-18T06:15:27.489Z,59.70
2019-05-18T06:16:01.467Z,61.18
2019-05-18T06:16:35.438Z,57.45
2019-05-18T06:17:11.576Z,57.05
2019-05-18T06:17:45.550Z,50.20
2019-05-18T06:18:19.529Z,56.48
2019-05-18T06:18:52.971Z,56.85
2019-05-18T06:19:26.971Z,59.75
2019-05-18T06:20:00.941Z,52.08
2019-05-18T06:20:34.365Z,54.63
2019-05-18T06:21:08.330Z,54.70
2019-05-18T06:21:42.308Z,56.98
2019-05-18T06:22:15.827Z,55.05
2019-05-18T06:22:49.816Z,51.92
2019-05-18T06:23:23.851Z,53.73
2019-05-18T06:23:57.280Z,48.40
2019-05-18T06:24:31.269Z,55.45
2019-05-18T06:25:07.508Z,57.80
2019-05-18T06:25:41.087Z,60.58
2019-05-18T06:26:15.062Z,55.08
2019-05-18T06:26:49.038Z,55.95
2019-05-18T06:27:22.459Z,49.20
2019-05-18T06:27:56.421Z,46.80
2019-05-18T06:28:30.396Z,43.68
2019-05-18T06:29:03.822Z,55.88
2019-05-18T06:29:37.808Z,47.15
2019-05-18T06:30:11.829Z,48.55
2019-05-18T06:30:45.437Z,45.88
2019-05-18T06:31:22.495Z,46.30
2019-05-18T06:31:55.030Z,48.55
2019-05-18T06:32:28.451Z,45.33
2019-05-18T06:33:02.424Z,44.75
2019-05-18T06:33:36.396Z,40.50
2019-05-18T06:34:09.842Z,38.85
2019-05-18T06:34:43.828Z,45.43
2019-05-18T06:35:17.797Z,38.00
2019-05-18T06:35:51.240Z,38.00
2019-05-18T06:36:25.330Z,43.13
2019-05-18T06:36:59.275Z,42.65
2019-05-18T06:37:32.704Z,39.60
2019-05-18T06:38:06.668Z,42.93
2019-05-18T06:38:40.644Z,35.33
2019-05-18T06:51:51.245Z,28.40
2019-05-18T06:52:25.220Z,26.12
2019-05-18T06:52:59.266Z,25.27
2019-05-18T06:53:32.717Z,21.60
2019-05-18T06:54:06.699Z,24.40
2019-05-18T06:54:40.671Z,21.65
2019-05-18T06:55:14.095Z,20.68
2019-05-18T06:55:48.138Z,21.05
2019-05-18T06:56:22.127Z,23.92
2019-05-18T06:56:55.816Z,20.08
2019-05-18T06:57:29.814Z,19.10
2019-05-18T06:58:03.804Z,18.12
2019-05-18T06:58:37.226Z,21.65
2019-05-18T07:10:33.971Z,14.63
2019-05-18T07:11:07.935Z,13.98
2019-05-18T07:11:41.921Z,14.53
2019-05-18T07:12:15.351Z,15.63
2019-05-18T07:28:49.624Z,9.45
2019-05-18T07:29:23.600Z,8.40
2019-05-18T07:29:57.594Z,11.18
2019-05-18T07:30:30.979Z,9.40
2019-05-18T07:31:05.021Z,8.85
2019-05-18T07:31:38.990Z,7.70
2019-05-18T08:04:26.229Z,6.83
2019-05-18T08:05:00.196Z,6.90
2019-05-18T08:05:34.155Z,6.20
2019-05-18T08:06:07.580Z,9.70
2019-05-18T08:06:41.552Z,10.10
2019-05-18T08:07:15.522Z,5.47
2019-05-18T08:07:48.933Z,9.78
2019-05-18T08:08:22.915Z,7.62
2019-05-18T08:08:56.910Z,10.03
2019-05-18T08:09:30.323Z,7.30
2019-05-18T08:10:08.849Z,8.78
2019-05-18T08:10:43.789Z,10.23
2019-05-18T08:11:17.472Z,6.10
2019-05-18T08:11:51.445Z,12.63
2019-05-18T08:12:25.413Z,12.43
2019-05-18T08:12:58.901Z,10.98
2019-05-18T08:13:32.873Z,11.60
2019-05-18T08:14:06.841Z,12.13
2019-05-18T08:14:40.263Z,12.35
2019-05-18T08:15:14.236Z,7.20
2019-05-18T08:15:48.232Z,8.18
2019-05-18T08:16:21.927Z,6.80
2019-05-18T08:16:55.900Z,12.15
2019-05-18T08:17:29.869Z,13.10
2019-05-18T08:18:03.572Z,11.43
2019-05-18T08:18:37.702Z,10.68
2019-05-18T08:19:11.670Z,12.00
2019-05-18T08:19:45.103Z,10.15
2019-05-18T08:20:19.049Z,10.15
2019-05-18T08:20:53.178Z,9.10
2019-05-18T08:21:26.613Z,8.15
2019-05-18T08:22:00.808Z,11.78
2019-05-18T08:22:34.774Z,10.48
2019-05-18T08:23:08.403Z,10.13
2019-05-18T08:23:42.382Z,17.77
2019-05-18T08:24:16.578Z,14.47
2019-05-18T08:24:50.018Z,9.85
2019-05-18T08:25:24.163Z,10.60
2019-05-18T08:25:58.261Z,9.28
2019-05-18T08:26:31.680Z,7.62
2019-05-18T08:27:05.653Z,8.48
2019-05-18T08:27:39.643Z,10.50
2019-05-18T08:28:13.065Z,11.08
2019-05-18T08:28:47.224Z,10.03
2019-05-18T08:29:21.190Z,9.33
2019-05-18T08:29:54.614Z,11.50
2019-05-18T08:30:28.607Z,7.60
2019-05-18T08:31:02.570Z,7.17
2019-05-18T08:31:35.976Z,10.63
2019-05-18T08:32:09.953Z,10.05
2019-05-18T08:32:44.123Z,9.85
2019-05-18T08:33:17.639Z,9.10
2019-05-18T08:33:51.617Z,11.35
2019-05-18T08:34:25.586Z,11.78
2019-05-18T08:34:59.048Z,10.72
2019-05-18T08:35:33.039Z,10.08
2019-05-18T08:36:07.103Z,7.78
2019-05-18T08:36:40.517Z,8.50
2019-05-18T08:37:14.489Z,10.38
2019-05-18T08:37:48.455Z,10.10
2019-05-18T08:38:21.980Z,10.53
2019-05-18T08:38:56.123Z,9.03
2019-05-18T08:39:30.171Z,10.13
2019-05-18T08:40:05.173Z,10.38
2019-05-18T08:40:39.140Z,12.43
2019-05-18T08:41:13.174Z,9.03
2019-05-18T08:41:48.760Z,8.25
2019-05-18T08:42:22.472Z,11.25
2019-05-18T08:42:56.644Z,10.75
2019-05-18T08:43:30.069Z,6.92
2019-05-18T08:44:04.215Z,8.53
2019-05-18T08:44:38.204Z,9.85
2019-05-18T08:45:11.619Z,8.00
2019-05-18T08:45:45.761Z,11.55